Аэропорт: Остафьево. Москва

ICAO: UUMO

METAR:
2019-12-12 10:00:00
UUMO 121000Z 17003MPS 7000 BKN006 02/02 Q1023 R26/290050 NOSIG RMK QBB180 QFE751/1002
METAR:
Информация по данной станции не доступна